createdAt,value
2018-03-03T00:01:32.818Z,-6.57
2018-03-03T00:04:01.146Z,-6.55
2018-03-03T00:06:29.495Z,-6.55
2018-03-03T00:08:57.814Z,-6.49
2018-03-03T00:11:26.157Z,-6.61
2018-03-03T00:13:54.482Z,-6.65
2018-03-03T00:16:22.826Z,-6.64
2018-03-03T00:18:51.154Z,-6.52
2018-03-03T00:21:19.507Z,-6.57
2018-03-03T00:23:47.831Z,-6.62
2018-03-03T00:26:16.168Z,-6.62
2018-03-03T00:28:44.498Z,-6.50
2018-03-03T00:31:12.840Z,-6.51
2018-03-03T00:33:41.165Z,-6.56
2018-03-03T00:36:09.515Z,-6.57
2018-03-03T00:38:37.842Z,-6.60
2018-03-03T00:41:06.197Z,-6.58
2018-03-03T00:43:34.510Z,-6.73
2018-03-03T00:46:02.923Z,-6.74
2018-03-03T00:48:31.235Z,-6.74
2018-03-03T00:50:59.585Z,-6.74
2018-03-03T00:53:27.914Z,-6.90
2018-03-03T00:55:56.258Z,-6.87
2018-03-03T00:58:24.590Z,-6.94
2018-03-03T01:00:52.920Z,-6.99
2018-03-03T01:03:21.250Z,-6.93
2018-03-03T01:05:49.597Z,-6.91
2018-03-03T01:08:17.930Z,-6.97
2018-03-03T01:10:46.279Z,-7.02
2018-03-03T01:13:14.602Z,-6.97
2018-03-03T01:15:42.946Z,-6.95
2018-03-03T01:18:11.265Z,-7.05
2018-03-03T01:20:39.615Z,-7.04
2018-03-03T01:23:07.937Z,-6.98
2018-03-03T01:25:36.283Z,-7.05
2018-03-03T01:28:04.610Z,-7.06
2018-03-03T01:30:32.954Z,-7.02
2018-03-03T01:33:01.277Z,-6.98
2018-03-03T01:35:29.621Z,-7.07
2018-03-03T01:37:57.954Z,-7.07
2018-03-03T01:40:26.307Z,-7.07
2018-03-03T01:42:54.634Z,-7.01
2018-03-03T01:45:22.987Z,-7.07
2018-03-03T01:47:51.310Z,-7.10
2018-03-03T01:50:19.658Z,-7.16
2018-03-03T01:52:47.986Z,-7.20
2018-03-03T01:55:16.334Z,-7.26
2018-03-03T01:57:44.666Z,-7.21
2018-03-03T02:00:12.990Z,-7.22
2018-03-03T02:02:41.341Z,-7.17
2018-03-03T02:05:09.666Z,-7.19
2018-03-03T02:07:38.026Z,-7.15
2018-03-03T02:10:06.352Z,-7.14
2018-03-03T02:12:34.693Z,-7.07
2018-03-03T02:15:03.021Z,-7.17
2018-03-03T02:17:31.360Z,-7.14
2018-03-03T02:19:59.690Z,-7.19
2018-03-03T02:22:28.042Z,-7.21
2018-03-03T02:24:56.370Z,-7.18
2018-03-03T02:27:24.714Z,-7.24
2018-03-03T02:29:53.045Z,-7.28
2018-03-03T02:32:21.387Z,-7.31
2018-03-03T02:34:49.710Z,-7.24
2018-03-03T02:37:18.073Z,-7.25
2018-03-03T02:39:46.400Z,-7.23
2018-03-03T02:42:14.742Z,-7.24
2018-03-03T02:44:43.069Z,-7.29
2018-03-03T02:47:11.461Z,-7.25
2018-03-03T02:49:39.782Z,-7.25
2018-03-03T02:52:08.142Z,-7.26
2018-03-03T02:54:36.468Z,-7.25
2018-03-03T02:57:04.815Z,-7.25
2018-03-03T02:59:33.134Z,-7.31
2018-03-03T03:02:01.483Z,-7.34
2018-03-03T03:04:29.822Z,-7.43
2018-03-03T03:06:58.175Z,-7.24
2018-03-03T03:09:26.502Z,-7.30
2018-03-03T03:11:54.855Z,-7.15
2018-03-03T03:14:23.181Z,-7.19
2018-03-03T03:16:51.531Z,-7.29
2018-03-03T03:19:19.858Z,-7.25
2018-03-03T03:21:48.209Z,-7.33
2018-03-03T03:24:16.534Z,-7.30
2018-03-03T03:26:44.885Z,-7.37
2018-03-03T03:29:13.205Z,-7.39
2018-03-03T03:31:41.555Z,-7.44
2018-03-03T03:34:09.890Z,-7.38
2018-03-03T03:36:38.230Z,-7.40
2018-03-03T03:39:06.553Z,-7.33
2018-03-03T03:41:34.899Z,-7.39
2018-03-03T03:44:03.217Z,-7.43
2018-03-03T03:46:31.574Z,-7.42
2018-03-03T03:48:59.899Z,-7.41
2018-03-03T03:51:28.246Z,-7.44
2018-03-03T03:53:56.578Z,-7.48
2018-03-03T03:56:24.930Z,-7.54
2018-03-03T03:58:53.259Z,-7.59
2018-03-03T04:01:21.582Z,-7.69
2018-03-03T04:03:49.936Z,-7.75
2018-03-03T04:06:18.257Z,-7.75
2018-03-03T04:08:46.642Z,-7.78
2018-03-03T04:11:14.970Z,-7.78
2018-03-03T04:13:43.316Z,-7.73
2018-03-03T04:16:11.642Z,-7.79
2018-03-03T04:18:39.990Z,-7.79
2018-03-03T04:21:08.318Z,-7.83
2018-03-03T04:23:36.677Z,-7.83
2018-03-03T04:26:05.001Z,-7.87
2018-03-03T04:28:33.355Z,-7.84
2018-03-03T04:31:01.686Z,-7.80
2018-03-03T04:33:30.764Z,-7.87
2018-03-03T04:35:59.089Z,-7.90
2018-03-03T04:38:27.438Z,-7.91
2018-03-03T04:40:55.778Z,-7.94
2018-03-03T04:43:24.142Z,-7.94
2018-03-03T04:45:52.474Z,-7.86
2018-03-03T04:48:20.928Z,-7.84
2018-03-03T04:50:49.242Z,-7.90
2018-03-03T04:53:17.594Z,-7.74
2018-03-03T04:55:45.922Z,-7.76
2018-03-03T04:58:14.270Z,-7.86
2018-03-03T05:00:44.959Z,-7.81
2018-03-03T05:03:31.054Z,-7.87
2018-03-03T05:05:59.731Z,-7.99
2018-03-03T05:08:33.513Z,-7.87
2018-03-03T05:11:01.857Z,-7.94
2018-03-03T05:13:33.741Z,-7.81
2018-03-03T05:16:07.659Z,-7.86
2018-03-03T05:18:41.734Z,-7.91
2018-03-03T05:24:22.737Z,-7.88
2018-03-03T05:26:56.638Z,-7.96
2018-03-03T05:32:48.530Z,-7.88
2018-03-03T05:35:33.670Z,-7.91
2018-03-03T05:41:22.506Z,-7.82
2018-03-03T05:44:02.357Z,-7.88
2018-03-03T05:49:39.301Z,-7.91
2018-03-03T05:52:08.426Z,-7.93
2018-03-03T05:54:42.332Z,-7.91
2018-03-03T05:57:28.329Z,-7.92
2018-03-03T06:00:02.262Z,-7.93
2018-03-03T06:02:36.250Z,-8.06
2018-03-03T06:05:10.270Z,-8.01
2018-03-03T06:07:42.622Z,-7.93
2018-03-03T06:10:12.777Z,-8.03
2018-03-03T06:12:41.130Z,-7.99
2018-03-03T06:15:09.453Z,-8.05
2018-03-03T06:17:37.777Z,-7.99
2018-03-03T06:20:06.118Z,-7.97
2018-03-03T06:22:34.446Z,-7.98
2018-03-03T06:25:02.799Z,-7.99
2018-03-03T06:27:31.119Z,-8.01
2018-03-03T06:29:59.461Z,-8.02
2018-03-03T06:32:27.786Z,-7.96
2018-03-03T06:34:56.142Z,-7.96
2018-03-03T06:37:24.466Z,-8.04
2018-03-03T06:39:52.813Z,-8.00
2018-03-03T06:42:21.138Z,-8.05
2018-03-03T06:44:49.482Z,-8.02
2018-03-03T06:47:17.802Z,-7.87
2018-03-03T06:49:46.145Z,-7.87
2018-03-03T06:52:14.469Z,-7.95
2018-03-03T06:54:42.814Z,-7.85
2018-03-03T06:57:11.142Z,-7.93
2018-03-03T06:59:39.486Z,-7.96
2018-03-03T07:02:07.838Z,-7.90
2018-03-03T07:04:36.193Z,-7.91
2018-03-03T07:07:04.517Z,-7.86
2018-03-03T07:09:32.861Z,-7.81
2018-03-03T07:12:01.186Z,-7.84
2018-03-03T07:14:31.894Z,-7.77
2018-03-03T07:17:00.218Z,-7.70
2018-03-03T07:19:28.563Z,-7.68
2018-03-03T07:21:56.890Z,-7.69
2018-03-03T07:24:25.239Z,-7.65
2018-03-03T07:26:53.556Z,-7.65
2018-03-03T07:29:21.901Z,-7.58
2018-03-03T07:31:50.231Z,-7.63
2018-03-03T07:34:18.582Z,-7.55
2018-03-03T07:36:46.906Z,-7.53
2018-03-03T07:39:15.265Z,-7.38
2018-03-03T07:41:43.591Z,-7.44
2018-03-03T07:44:11.939Z,-7.40
2018-03-03T07:46:40.273Z,-7.35
2018-03-03T07:49:08.616Z,-7.34
2018-03-03T07:51:36.934Z,-7.36
2018-03-03T07:54:05.278Z,-7.33
2018-03-03T07:56:45.521Z,-7.25
2018-03-03T07:59:13.870Z,-7.27
2018-03-03T08:01:42.198Z,-7.31
2018-03-03T08:04:10.546Z,-7.28
2018-03-03T08:06:38.869Z,-7.25
2018-03-03T08:09:07.226Z,-7.20
2018-03-03T08:11:35.572Z,-7.14
2018-03-03T08:14:04.617Z,-7.06
2018-03-03T08:16:33.123Z,-6.98
2018-03-03T08:19:01.472Z,-6.95
2018-03-03T08:21:29.801Z,-7.04
2018-03-03T08:23:58.155Z,-6.89
2018-03-03T08:26:26.482Z,-6.79
2018-03-03T08:28:54.809Z,-6.73
2018-03-03T08:31:23.305Z,-6.72
2018-03-03T08:33:51.722Z,-6.65
2018-03-03T08:36:20.065Z,-6.61
2018-03-03T08:38:48.419Z,-6.62
2018-03-03T08:41:17.010Z,-6.63
2018-03-03T08:43:45.334Z,-6.48
2018-03-03T08:46:13.686Z,-6.30
2018-03-03T08:48:42.013Z,-6.18
2018-03-03T08:51:10.366Z,-6.24
2018-03-03T08:53:38.690Z,-6.25
2018-03-03T08:56:07.978Z,-6.17
2018-03-03T08:58:36.306Z,-6.01
2018-03-03T09:01:04.658Z,-5.97
2018-03-03T09:03:32.986Z,-5.83
2018-03-03T09:06:01.338Z,-5.67
2018-03-03T09:08:30.854Z,-5.69
2018-03-03T09:10:59.492Z,-5.66
2018-03-03T09:13:28.323Z,-5.80
2018-03-03T09:15:56.708Z,-5.69
2018-03-03T09:18:25.029Z,-5.67
2018-03-03T09:20:53.381Z,-5.26
2018-03-03T09:23:21.729Z,-5.25
2018-03-03T09:25:50.063Z,-5.27
2018-03-03T09:28:18.390Z,-5.23
2018-03-03T09:30:46.734Z,-5.41
2018-03-03T09:33:15.140Z,-5.40
2018-03-03T09:35:43.486Z,-5.22
2018-03-03T09:38:11.829Z,-5.16
2018-03-03T09:40:40.170Z,-5.24
2018-03-03T09:43:08.506Z,-5.22
2018-03-03T09:45:36.853Z,-5.28
2018-03-03T09:48:05.173Z,-5.07
2018-03-03T09:50:33.535Z,-5.09
2018-03-03T09:53:02.875Z,-5.13
2018-03-03T09:55:31.226Z,-5.02
2018-03-03T09:57:59.559Z,-4.97
2018-03-03T10:00:27.909Z,-4.87
2018-03-03T10:02:56.287Z,-4.87
2018-03-03T10:05:24.630Z,-4.88
2018-03-03T10:07:52.961Z,-4.74
2018-03-03T10:10:21.339Z,-4.70
2018-03-03T10:12:49.730Z,-4.66
2018-03-03T10:15:18.080Z,-4.51
2018-03-03T10:17:46.414Z,-4.51
2018-03-03T10:20:14.881Z,-4.38
2018-03-03T10:22:43.241Z,-4.43
2018-03-03T10:25:11.691Z,-4.35
2018-03-03T10:27:40.062Z,-4.36
2018-03-03T10:30:08.396Z,-4.37
2018-03-03T10:32:37.440Z,-4.38
2018-03-03T10:35:05.809Z,-4.30
2018-03-03T10:37:34.201Z,-4.27
2018-03-03T10:40:02.537Z,-4.27
2018-03-03T10:42:30.984Z,-3.97
2018-03-03T10:44:59.335Z,-3.90
2018-03-03T10:47:27.674Z,-3.93
2018-03-03T10:49:56.022Z,-3.84
2018-03-03T10:52:24.378Z,-3.76
2018-03-03T10:54:52.705Z,-3.75
2018-03-03T10:57:21.073Z,-3.52
2018-03-03T10:59:49.423Z,-3.26
2018-03-03T11:02:17.808Z,-3.20
2018-03-03T11:04:46.155Z,-3.26
2018-03-03T11:07:14.519Z,-3.09
2018-03-03T11:09:42.863Z,-2.92
2018-03-03T11:12:12.098Z,-2.77
2018-03-03T11:14:40.631Z,-2.92
2018-03-03T11:17:09.018Z,-2.90
2018-03-03T11:19:37.351Z,-2.75
2018-03-03T11:22:05.723Z,-2.76
2018-03-03T11:24:34.058Z,-2.75
2018-03-03T11:27:02.416Z,-2.78
2018-03-03T11:29:30.738Z,-2.46
2018-03-03T11:31:59.830Z,-2.61
2018-03-03T11:34:28.170Z,-2.47
2018-03-03T11:36:56.524Z,-2.63
2018-03-03T11:39:24.850Z,-2.46
2018-03-03T11:41:53.216Z,-2.27
2018-03-03T11:44:21.533Z,-2.04
2018-03-03T11:46:49.894Z,-1.96
2018-03-03T11:49:18.229Z,-2.06
2018-03-03T11:51:47.375Z,-1.99
2018-03-03T11:54:15.778Z,-1.94
2018-03-03T11:56:44.131Z,-1.88
2018-03-03T11:59:12.462Z,-1.95
2018-03-03T12:01:40.817Z,-1.99
2018-03-03T12:04:09.165Z,-1.96
2018-03-03T12:06:37.499Z,-1.87
2018-03-03T12:09:05.857Z,-1.90
2018-03-03T12:11:34.225Z,-1.92
2018-03-03T12:14:02.570Z,-1.91
2018-03-03T12:16:30.901Z,-1.69
2018-03-03T12:18:59.249Z,-1.75
2018-03-03T12:21:27.578Z,-1.72
2018-03-03T12:23:55.933Z,-1.65
2018-03-03T12:26:25.255Z,-1.64
2018-03-03T12:28:53.610Z,-1.41
2018-03-03T12:31:21.936Z,-1.43
2018-03-03T12:33:50.299Z,-1.41
2018-03-03T12:36:18.626Z,-1.44
2018-03-03T12:38:46.977Z,-1.23
2018-03-03T12:41:15.318Z,-1.14
2018-03-03T12:43:43.792Z,-1.07
2018-03-03T12:46:13.013Z,-1.13
2018-03-03T12:48:41.364Z,-1.07
2018-03-03T12:51:09.702Z,-1.01
2018-03-03T12:53:38.063Z,-1.02
2018-03-03T12:56:06.390Z,-0.94
2018-03-03T12:58:34.789Z,-0.95
2018-03-03T13:01:03.074Z,-0.88
2018-03-03T13:03:31.418Z,-1.11
2018-03-03T13:06:00.726Z,-1.22
2018-03-03T13:08:29.077Z,-1.18
2018-03-03T13:10:57.405Z,-1.01
2018-03-03T13:13:25.762Z,-0.91
2018-03-03T13:15:54.099Z,-0.88
2018-03-03T13:18:22.450Z,-0.98
2018-03-03T13:20:50.777Z,-1.12
2018-03-03T13:23:19.130Z,-1.12
2018-03-03T13:25:47.454Z,-1.05
2018-03-03T13:28:15.806Z,-1.02
2018-03-03T13:30:44.142Z,-0.89
2018-03-03T13:33:12.502Z,-0.73
2018-03-03T13:35:40.854Z,-0.69
2018-03-03T13:38:09.202Z,-0.68
2018-03-03T13:40:37.530Z,-0.77
2018-03-03T13:43:05.882Z,-0.74
2018-03-03T13:45:34.223Z,-0.73
2018-03-03T13:48:02.593Z,-0.70
2018-03-03T13:50:30.914Z,-0.69
2018-03-03T13:52:59.265Z,-0.57
2018-03-03T13:55:27.593Z,-0.49
2018-03-03T13:57:55.949Z,-0.49
2018-03-03T14:00:24.275Z,-0.55
2018-03-03T14:02:52.631Z,-0.54
2018-03-03T14:05:20.970Z,-0.49
2018-03-03T14:07:49.293Z,-0.51
2018-03-03T14:10:17.646Z,-0.47
2018-03-03T14:12:46.021Z,-0.42
2018-03-03T14:15:14.369Z,-0.40
2018-03-03T14:17:42.702Z,-0.43
2018-03-03T14:20:11.055Z,-0.36
2018-03-03T14:22:39.381Z,-0.44
2018-03-03T14:25:07.733Z,-0.37
2018-03-03T14:27:36.058Z,-0.25
2018-03-03T14:30:04.430Z,-0.35
2018-03-03T14:32:32.758Z,-0.29
2018-03-03T14:35:01.113Z,-0.31
2018-03-03T14:37:29.461Z,-0.35
2018-03-03T14:39:57.825Z,-0.25
2018-03-03T14:42:26.150Z,-0.27
2018-03-03T14:44:54.497Z,-0.25
2018-03-03T14:47:22.827Z,-0.15
2018-03-03T14:49:51.224Z,-0.13
2018-03-03T14:52:19.845Z,-0.11
2018-03-03T14:54:48.194Z,-0.07
2018-03-03T14:57:16.530Z,-0.19
2018-03-03T14:59:44.875Z,-0.22
2018-03-03T15:02:13.201Z,-0.20
2018-03-03T15:04:41.553Z,-0.23
2018-03-03T15:07:09.874Z,-0.20
2018-03-03T15:09:38.221Z,-0.25
2018-03-03T15:12:06.706Z,-0.26
2018-03-03T15:14:35.099Z,-0.20
2018-03-03T15:17:03.441Z,-0.21
2018-03-03T15:19:31.946Z,-0.24
2018-03-03T15:22:00.277Z,-0.19
2018-03-03T15:24:28.622Z,-0.36
2018-03-03T15:26:56.950Z,-0.40
2018-03-03T15:29:25.293Z,-0.53
2018-03-03T15:31:53.631Z,-0.58
2018-03-03T15:34:21.974Z,-0.50
2018-03-03T15:36:50.302Z,-0.49
2018-03-03T15:39:18.678Z,-0.55
2018-03-03T15:41:46.994Z,-0.61
2018-03-03T15:44:15.335Z,-0.70
2018-03-03T15:46:43.681Z,-0.59
2018-03-03T15:49:13.107Z,-0.62
2018-03-03T15:51:41.446Z,-0.66
2018-03-03T15:54:09.802Z,-0.78
2018-03-03T15:56:38.145Z,-0.70
2018-03-03T15:59:06.506Z,-0.65
2018-03-03T16:01:34.844Z,-0.66
2018-03-03T16:04:03.207Z,-0.63
2018-03-03T16:06:31.534Z,-0.65
2018-03-03T16:08:59.886Z,-0.64
2018-03-03T16:11:28.236Z,-0.64
2018-03-03T16:13:56.586Z,-0.67
2018-03-03T16:16:24.968Z,-0.74
2018-03-03T16:18:53.326Z,-0.69
2018-03-03T16:21:21.686Z,-0.63
2018-03-03T16:23:50.018Z,-0.74
2018-03-03T16:26:19.302Z,-0.73
2018-03-03T16:28:47.634Z,-0.74
2018-03-03T16:31:16.037Z,-0.76
2018-03-03T16:33:44.378Z,-0.71
2018-03-03T16:36:13.735Z,-0.69
2018-03-03T16:38:42.101Z,-0.66
2018-03-03T16:41:10.439Z,-0.76
2018-03-03T16:43:38.769Z,-0.71
2018-03-03T16:46:07.114Z,-0.82
2018-03-03T16:48:35.446Z,-0.71
2018-03-03T16:51:03.797Z,-0.71
2018-03-03T16:53:32.122Z,-0.73
2018-03-03T16:56:01.510Z,-0.65
2018-03-03T16:58:29.907Z,-0.70
2018-03-03T17:00:58.238Z,-0.62
2018-03-03T17:03:26.627Z,-0.60
2018-03-03T17:05:55.139Z,-0.79
2018-03-03T17:08:24.306Z,-0.70
2018-03-03T17:10:52.658Z,-0.68
2018-03-03T17:13:20.990Z,-0.64
2018-03-03T17:15:49.337Z,-0.65
2018-03-03T17:18:17.682Z,-0.65
2018-03-03T17:20:46.030Z,-0.64
2018-03-03T17:23:14.395Z,-0.66
2018-03-03T17:25:42.726Z,-0.82
2018-03-03T17:28:11.093Z,-0.76
2018-03-03T17:30:39.437Z,-0.67
2018-03-03T17:33:07.802Z,-0.60
2018-03-03T17:35:36.138Z,-0.74
2018-03-03T17:38:04.461Z,-0.68
2018-03-03T17:40:32.817Z,-0.63
2018-03-03T17:43:01.186Z,-0.68
2018-03-03T17:45:29.545Z,-0.80
2018-03-03T17:47:57.882Z,-0.77
2018-03-03T17:50:26.229Z,-0.85
2018-03-03T17:52:54.579Z,-0.80
2018-03-03T17:55:22.922Z,-0.70
2018-03-03T17:57:51.318Z,-0.65
2018-03-03T18:00:19.778Z,-0.49
2018-03-03T18:02:48.106Z,-0.47
2018-03-03T18:05:16.502Z,-0.50
2018-03-03T18:07:44.826Z,-0.59
2018-03-03T18:10:13.198Z,-0.43
2018-03-03T18:12:41.526Z,-0.32
2018-03-03T18:15:09.869Z,-0.22
2018-03-03T18:17:38.223Z,-0.31
2018-03-03T18:20:06.550Z,-0.36
2018-03-03T18:22:35.186Z,-0.33
2018-03-03T18:25:04.894Z,-0.29
2018-03-03T18:27:33.246Z,-0.39
2018-03-03T18:30:01.655Z,-0.39
2018-03-03T18:32:30.013Z,-0.41
2018-03-03T18:34:58.340Z,-0.61
2018-03-03T18:37:26.782Z,-0.65
2018-03-03T18:39:55.194Z,-0.73
2018-03-03T18:42:23.528Z,-0.88
2018-03-03T18:44:51.856Z,-0.88
2018-03-03T18:47:20.210Z,-0.89
2018-03-03T18:49:48.577Z,-0.86
2018-03-03T18:52:16.935Z,-0.88
2018-03-03T18:54:45.273Z,-0.93
2018-03-03T18:57:13.629Z,-0.86
2018-03-03T18:59:41.958Z,-0.89
2018-03-03T19:02:10.362Z,-0.93
2018-03-03T19:04:38.694Z,-0.80
2018-03-03T19:07:07.990Z,-0.90
2018-03-03T19:09:36.406Z,-0.86
2018-03-03T19:12:04.855Z,-0.86
2018-03-03T19:14:33.261Z,-0.86
2018-03-03T19:17:01.621Z,-0.76
2018-03-03T19:19:29.955Z,-0.84
2018-03-03T19:21:58.299Z,-0.86
2018-03-03T19:24:26.773Z,-0.75
2018-03-03T19:26:55.201Z,-0.84
2018-03-03T19:29:23.526Z,-0.92
2018-03-03T19:31:51.881Z,-0.99
2018-03-03T19:34:20.207Z,-1.01
2018-03-03T19:36:48.550Z,-1.07
2018-03-03T19:39:16.891Z,-1.01
2018-03-03T19:41:45.327Z,-0.81
2018-03-03T19:44:13.642Z,-0.86
2018-03-03T19:46:42.005Z,-0.86
2018-03-03T19:49:10.334Z,-0.85
2018-03-03T19:51:38.719Z,-0.85
2018-03-03T19:54:07.100Z,-0.81
2018-03-03T19:56:35.469Z,-0.71
2018-03-03T19:59:03.873Z,-0.70
2018-03-03T20:01:32.210Z,-0.74
2018-03-03T20:04:00.550Z,-0.78
2018-03-03T20:06:29.336Z,-0.85
2018-03-03T20:08:58.022Z,-0.90
2018-03-03T20:11:26.911Z,-0.82
2018-03-03T20:13:55.698Z,-0.79
2018-03-03T20:16:24.587Z,-0.82
2018-03-03T20:18:53.373Z,-0.79
2018-03-03T20:21:22.160Z,-0.68
2018-03-03T20:23:51.973Z,-0.69
2018-03-03T20:26:20.764Z,-0.68
2018-03-03T20:28:49.646Z,-0.61
2018-03-03T20:31:18.433Z,-0.70
2018-03-03T20:33:47.323Z,-0.69
2018-03-03T20:36:16.211Z,-0.59
2018-03-03T20:38:45.100Z,-0.69
2018-03-03T20:41:14.093Z,-0.60
2018-03-03T20:43:42.982Z,-0.60
2018-03-03T20:46:11.845Z,-0.67
2018-03-03T20:48:40.760Z,-0.63
2018-03-03T20:51:09.546Z,-0.75
2018-03-03T20:53:38.436Z,-0.66
2018-03-03T20:56:08.247Z,-0.57
2018-03-03T20:58:36.824Z,-0.61
2018-03-03T21:01:05.150Z,-0.70
2018-03-03T21:03:33.501Z,-0.63
2018-03-03T21:06:01.834Z,-0.56
2018-03-03T21:08:30.187Z,-0.58
2018-03-03T21:10:58.518Z,-0.55
2018-03-03T21:13:26.867Z,-0.64
2018-03-03T21:15:55.195Z,-0.65
2018-03-03T21:18:24.215Z,-0.61
2018-03-03T21:20:52.596Z,-0.71
2018-03-03T21:23:20.944Z,-0.85
2018-03-03T21:25:49.306Z,-0.85
2018-03-03T21:28:17.666Z,-0.76
2018-03-03T21:30:46.022Z,-0.78
2018-03-03T21:33:14.471Z,-0.69
2018-03-03T21:35:42.802Z,-0.65
2018-03-03T21:38:11.221Z,-0.79
2018-03-03T21:40:39.607Z,-0.84
2018-03-03T21:43:07.958Z,-0.70
2018-03-03T21:45:36.350Z,-0.73
2018-03-03T21:48:04.694Z,-0.81
2018-03-03T21:50:33.107Z,-0.70
2018-03-03T21:53:01.463Z,-0.83
2018-03-03T21:55:29.878Z,-0.88
2018-03-03T21:57:58.235Z,-0.74
2018-03-03T22:00:26.577Z,-0.78
2018-03-03T22:02:54.939Z,-0.79
2018-03-03T22:05:23.258Z,-0.69
2018-03-03T22:07:51.642Z,-0.76
2018-03-03T22:10:20.031Z,-0.81
2018-03-03T22:12:48.388Z,-0.84
2018-03-03T22:15:16.778Z,-0.84
2018-03-03T22:17:45.134Z,-0.87
2018-03-03T22:20:13.593Z,-0.83
2018-03-03T22:22:41.905Z,-0.79
2018-03-03T22:25:10.287Z,-0.80
2018-03-03T22:27:38.658Z,-0.77
2018-03-03T22:30:06.987Z,-0.83
2018-03-03T22:32:35.418Z,-0.72
2018-03-03T22:35:03.761Z,-0.77
2018-03-03T22:37:32.088Z,-0.76
2018-03-03T22:40:00.446Z,-0.78
2018-03-03T22:42:28.826Z,-0.86
2018-03-03T22:44:57.179Z,-0.95
2018-03-03T22:47:25.508Z,-0.99
2018-03-03T22:49:53.856Z,-0.91
2018-03-03T22:52:22.186Z,-0.93
2018-03-03T22:54:50.612Z,-0.97
2018-03-03T22:57:18.981Z,-1.03
2018-03-03T22:59:47.341Z,-0.95
2018-03-03T23:02:15.675Z,-1.02
2018-03-03T23:04:44.477Z,-1.00
2018-03-03T23:07:12.822Z,-1.05
2018-03-03T23:09:41.171Z,-0.92
2018-03-03T23:12:09.562Z,-0.86
2018-03-03T23:14:37.918Z,-0.88
2018-03-03T23:17:06.238Z,-0.95
2018-03-03T23:19:34.587Z,-0.88
2018-03-03T23:22:02.918Z,-0.88
2018-03-03T23:24:31.268Z,-1.03
2018-03-03T23:26:59.610Z,-1.09
2018-03-03T23:29:27.986Z,-1.25
2018-03-03T23:31:56.305Z,-1.13
2018-03-03T23:34:24.650Z,-1.19
2018-03-03T23:36:52.974Z,-1.20
2018-03-03T23:39:21.318Z,-1.21
2018-03-03T23:41:49.642Z,-1.15
2018-03-03T23:44:18.046Z,-1.21
2018-03-03T23:46:46.377Z,-1.23
2018-03-03T23:49:14.722Z,-1.18
2018-03-03T23:51:43.046Z,-1.16
2018-03-03T23:54:11.415Z,-1.25
2018-03-03T23:56:39.742Z,-1.17
2018-03-03T23:59:08.086Z,-1.33
